Sign-in with your pilot id or email, or register

ICAO: UTDD Name / Country: Dushanbe Airport / Tajikistan
Latitude: 38.5433 Longitude: 68.825
Total Arrivals:
Strict Standards: Non-static method AirportData::getarrflights() should not be called statically, assuming $this from incompatible context in /var/www/customers/vh-7192/web/home/phpvms/core/templates/airport_info.tpl on line 18
1
Total Departures:
Strict Standards: Non-static method AirportData::getdeptflights() should not be called statically, assuming $this from incompatible context in /var/www/customers/vh-7192/web/home/phpvms/core/templates/airport_info.tpl on line 21
1
Latest Arrival: MTA5PM (OIIE-UTDD) Tibor Berces Latest Departure: MTA003 (UTDD-UAAA) Tibor Berces
Metar: UTDD 270900Z 16003MPS 070V240 9999 NSC 26/M02 Q1015 R09/D NOSIG RMK QFE693/0924
More info

Charts for UTDD


NOTAM


Warning: file_get_contents(http://api.vateud.net/notams/UTDD.json): failed to open stream: Redirection limit reached, aborting in /var/www/customers/vh-7192/web/home/phpvms/core/common/NOTAMSData.class.php on line 18

Warning: Invalid argument supplied for foreach() in /var/www/customers/vh-7192/web/home/phpvms/core/common/NOTAMSData.class.php on line 22

Dushanbe Airport